Time;durP1;ratioP1;P1;durP2;ratioP2;P2;SDS_P1;SDS_P2;PMS_P1;PMS_P2;Temp;Humidity;BMP_temperature;BMP_pressure;BME280_temperature;BME280_humidity;BME280_pressure;Samples;Min_cycle;Max_cycle;Signal;HPM_P1;HPM_P2
2022/11/14 00:01:56;;;;;;;26.98;17.58;;;;;;;2.82;94.93;101307.81;5037226;28;20048;-79
2022/11/14 00:04:40;;;;;;;27.33;15.88;;;;;;;2.81;95.25;101309.56;5025598;28;20052;-80
2022/11/14 00:07:25;;;;;;;24.52;13.52;;;;;;;2.80;94.78;101309.66;5020854;28;20072;-80
2022/11/14 00:10:09;;;;;;;20.30;12.82;;;;;;;2.80;94.41;101309.66;5022137;28;20088;-79
2022/11/14 00:12:53;;;;;;;23.55;15.00;;;;;;;2.75;94.38;101309.94;5033195;28;20067;-79
2022/11/14 00:15:37;;;;;;;27.15;15.40;;;;;;;2.70;94.55;101306.84;5033022;28;20067;-80
2022/11/14 00:18:22;;;;;;;27.20;15.95;;;;;;;2.66;94.29;101311.31;5031774;28;20087;-80
2022/11/14 00:21:06;;;;;;;25.40;14.77;;;;;;;2.66;94.65;101313.88;5036939;28;20073;-79
2022/11/14 00:23:50;;;;;;;22.83;13.10;;;;;;;2.68;95.07;101308.66;5018690;28;20060;-79
2022/11/14 00:26:34;;;;;;;22.05;12.68;;;;;;;2.70;94.97;101301.72;5020636;28;20045;-79
2022/11/14 00:29:18;;;;;;;22.92;12.27;;;;;;;2.68;94.98;101296.66;5027431;28;20045;-80
2022/11/14 00:32:02;;;;;;;25.27;12.90;;;;;;;2.67;95.19;101296.75;5039032;28;20072;-79
2022/11/14 00:34:46;;;;;;;24.40;11.80;;;;;;;2.65;95.21;101306.28;5041414;28;20122;-79
2022/11/14 00:37:30;;;;;;;20.55;11.80;;;;;;;2.62;95.07;101297.06;5025939;28;20060;-80
2022/11/14 00:40:14;;;;;;;18.05;11.10;;;;;;;2.57;95.23;101293.94;5046742;28;20052;-80
2022/11/14 00:42:58;;;;;;;22.85;12.35;;;;;;;2.52;95.33;101296.78;5043141;28;20525;-80
2022/11/14 00:45:46;;;;;;;28.88;17.58;;;;;;;2.45;95.47;101290.38;5041515;28;20044;-80
2022/11/14 00:48:30;;;;;;;25.95;13.52;;;;;;;2.38;95.59;101286.53;5030905;28;20133;-80
2022/11/14 00:51:14;;;;;;;21.58;10.02;;;;;;;2.33;95.74;101291.09;5044302;28;20053;-79
2022/11/14 00:53:58;;;;;;;15.75;9.93;;;;;;;2.25;96.00;101281.31;5027354;28;20130;-80
2022/11/14 00:56:43;;;;;;;17.95;9.90;;;;;;;2.21;96.38;101274.72;5024475;28;20422;-80
2022/11/14 00:59:27;;;;;;;17.73;8.93;;;;;;;2.20;96.60;101279.94;5026729;28;20056;-80
2022/11/14 01:02:11;;;;;;;21.08;10.15;;;;;;;2.19;97.19;101271.44;5025146;28;20085;-80
2022/11/14 01:04:55;;;;;;;17.20;9.48;;;;;;;2.19;97.24;101270.63;5047909;23;20103;-76
2022/11/14 01:07:39;;;;;;;18.25;9.20;;;;;;;2.16;97.16;101270.78;5021393;28;20052;-76
2022/11/14 01:10:23;;;;;;;15.32;9.10;;;;;;;2.15;96.95;101269.97;5034027;28;20044;-76
2022/11/14 01:13:08;;;;;;;19.42;10.20;;;;;;;2.16;97.39;101265.69;5019111;28;20117;-74
2022/11/14 01:15:53;;;;;;;18.60;10.38;;;;;;;2.17;96.96;101260.47;5016424;28;20509;-76
2022/11/14 01:18:39;;;;;;;19.40;10.57;;;;;;;2.20;97.26;101262.03;5020344;28;20091;-76
2022/11/14 01:21:23;;;;;;;18.25;9.98;;;;;;;2.23;97.00;101255.00;5016707;28;20722;-76
2022/11/14 01:24:07;;;;;;;23.60;9.75;;;;;;;2.26;97.05;101252.25;5020949;28;20143;-76
2022/11/14 01:26:54;;;;;;;20.05;10.65;;;;;;;2.28;96.73;101247.03;5018104;28;20120;-76
2022/11/14 01:29:38;;;;;;;14.52;9.68;;;;;;;2.29;96.46;101241.81;5019152;28;20438;-76
2022/11/14 01:32:22;;;;;;;18.58;10.10;;;;;;;2.32;96.67;101240.84;5019058;28;20051;-76
2022/11/14 01:35:06;;;;;;;17.70;9.32;;;;;;;2.33;96.31;101243.28;5018689;28;20293;-76
2022/11/14 01:37:50;;;;;;;18.40;10.00;;;;;;;2.30;96.23;101232.44;5019601;28;20095;-76
2022/11/14 01:40:40;;;;;;;18.10;10.30;;;;;;;2.21;96.11;101230.41;5030826;28;20478;-76
2022/11/14 01:43:30;;;;;;;18.80;9.70;;;;;;;2.12;96.24;101226.66;5020336;28;20080;-75
2022/11/14 01:46:36;;;;;;;20.08;10.38;;;;;;;2.08;96.04;101233.69;5023082;28;20513;-76
2022/11/14 01:49:25;;;;;;;18.38;9.80;;;;;;;2.07;96.16;101223.53;5035599;28;20132;-75
2022/11/14 01:52:16;;;;;;;17.65;10.23;;;;;;;2.09;96.33;101229.38;5024248;28;20047;-76
2022/11/14 01:55:04;;;;;;;17.60;9.32;;;;;;;2.11;96.22;101232.66;5021879;28;20052;-76
2022/11/14 01:57:48;;;;;;;16.70;9.98;;;;;;;2.12;96.04;101222.34;5021827;28;20047;-76
2022/11/14 02:00:33;;;;;;;19.95;8.73;;;;;;;2.14;95.95;101224.81;5019974;28;20080;-76
2022/11/14 02:03:18;;;;;;;18.42;9.95;;;;;;;2.14;95.84;101214.59;5025705;28;20091;-76
2022/11/14 02:06:05;;;;;;;17.98;9.18;;;;;;;2.13;96.00;101215.50;5020948;28;20048;-76
2022/11/14 02:08:51;;;;;;;15.63;9.18;;;;;;;2.12;95.85;101217.22;5023057;28;20036;-76
2022/11/14 02:11:39;;;;;;;17.92;9.50;;;;;;;2.11;95.96;101218.16;5014884;28;20049;-76
2022/11/14 02:14:26;;;;;;;14.75;8.75;;;;;;;2.10;96.09;101208.00;5023579;28;20052;-76
2022/11/14 02:17:11;;;;;;;14.90;8.80;;;;;;;2.08;96.23;101202.16;5017594;28;20041;-75
2022/11/14 02:20:09;;;;;;;18.40;10.15;;;;;;;2.07;95.97;101205.63;5020502;28;20060;-76
2022/11/14 02:22:53;;;;;;;16.00;8.38;;;;;;;2.06;96.07;101202.25;5021074;28;20118;-76
2022/11/14 02:25:38;;;;;;;18.20;9.20;;;;;;;2.00;96.00;101194.94;5020059;28;20091;-75
2022/11/14 02:28:23;;;;;;;19.65;9.18;;;;;;;1.93;95.93;101186.78;5019590;28;20079;-75
2022/11/14 02:31:06;;;;;;;19.35;9.00;;;;;;;1.83;95.95;101180.59;5019538;28;20152;-76
2022/11/14 02:33:51;;;;;;;16.63;9.07;;;;;;;1.79;96.25;101180.84;5018250;28;20044;-76
2022/11/14 02:36:35;;;;;;;15.10;8.50;;;;;;;1.73;96.42;101170.09;5017585;28;20546;-75
2022/11/14 02:39:19;;;;;;;19.13;9.95;;;;;;;1.71;96.96;101174.47;5022554;28;20278;-76
2022/11/14 02:42:03;;;;;;;16.00;8.73;;;;;;;1.67;96.76;101172.16;5016889;28;20490;-75
2022/11/14 02:44:46;;;;;;;17.08;9.18;;;;;;;1.60;96.76;101171.72;5019378;28;20277;-76
2022/11/14 02:47:30;;;;;;;17.35;9.02;;;;;;;1.54;96.97;101161.81;5018970;28;20050;-76
2022/11/14 02:50:15;;;;;;;16.05;9.60;;;;;;;1.50;96.83;101168.03;5026624;28;20518;-75
2022/11/14 02:52:59;;;;;;;15.80;8.85;;;;;;;1.47;96.92;101165.63;5015536;28;20505;-75
2022/11/14 02:55:43;;;;;;;17.63;8.73;;;;;;;1.44;97.37;101156.41;5017016;28;20041;-75
2022/11/14 02:58:27;;;;;;;20.33;9.10;;;;;;;1.45;96.89;101149.56;5018160;28;20103;-75
2022/11/14 03:01:12;;;;;;;20.08;11.85;;;;;;;1.47;97.14;101157.97;5020045;28;20056;-76
2022/11/14 03:03:56;;;;;;;23.15;13.70;;;;;;;1.48;97.08;101151.97;5016644;28;20180;-76
2022/11/14 03:06:40;;;;;;;15.77;10.02;;;;;;;1.47;96.66;101147.75;5016125;28;20049;-75
2022/11/14 03:09:24;;;;;;;17.65;9.30;;;;;;;1.45;96.69;101149.56;5015858;28;20115;-76
2022/11/14 03:12:08;;;;;;;18.50;9.10;;;;;;;1.46;96.61;101143.56;5030590;28;20458;-75
2022/11/14 03:14:52;;;;;;;15.63;9.07;;;;;;;1.45;97.24;101149.56;5032396;28;20056;-76
2022/11/14 03:17:36;;;;;;;18.13;9.80;;;;;;;1.43;97.26;101146.28;5016001;28;20655;-75
2022/11/14 03:20:20;;;;;;;15.75;8.95;;;;;;;1.38;97.49;101144.00;5021007;28;20099;-75
2022/11/14 03:23:05;;;;;;;19.55;10.07;;;;;;;1.31;97.29;101138.41;5017823;28;20051;-76
2022/11/14 03:25:49;;;;;;;17.65;10.10;;;;;;;1.27;97.53;101142.06;5017563;28;20536;-76
2022/11/14 03:28:33;;;;;;;18.55;9.85;;;;;;;1.20;97.27;101130.53;5017061;28;20048;-76
2022/11/14 03:31:17;;;;;;;20.52;10.50;;;;;;;1.16;97.41;101123.97;5015643;28;20048;-74
2022/11/14 03:34:02;;;;;;;21.55;10.88;;;;;;;1.11;97.26;101124.22;5013793;28;20075;-76
2022/11/14 03:36:45;;;;;;;21.20;12.32;;;;;;;1.07;97.49;101117.63;5016926;28;20045;-75
2022/11/14 03:39:30;;;;;;;18.17;10.23;;;;;;;1.04;97.38;101120.38;5014300;28;20507;-75
2022/11/14 03:42:13;;;;;;;17.55;9.30;;;;;;;1.03;97.92;101123.00;5017541;28;20060;-76
2022/11/14 03:44:57;;;;;;;18.13;9.43;;;;;;;1.01;97.94;101119.72;5017896;28;20056;-76
2022/11/14 03:47:41;;;;;;;23.75;11.95;;;;;;;1.00;97.53;101118.91;5016496;28;20045;-76
2022/11/14 03:50:25;;;;;;;23.75;13.55;;;;;;;1.03;97.72;101120.44;5017881;28;20110;-76
2022/11/14 03:53:10;;;;;;;19.85;12.55;;;;;;;1.06;97.75;101127.94;5014258;28;20040;-76
2022/11/14 03:55:54;;;;;;;16.27;10.07;;;;;;;1.11;97.83;101131.03;5015815;28;20052;-75
2022/11/14 03:58:38;;;;;;;16.23;8.75;;;;;;;1.14;97.43;101128.34;5016890;28;20568;-76
2022/11/14 04:01:22;;;;;;;20.40;9.57;;;;;;;1.16;97.67;101122.22;5018644;28;20100;-75
2022/11/14 04:04:06;;;;;;;16.50;9.07;;;;;;;1.17;97.61;101125.63;5028567;28;20044;-75
2022/11/14 04:06:50;;;;;;;18.80;9.02;;;;;;;1.15;97.51;101118.03;5018063;28;20115;-76
2022/11/14 04:09:34;;;;;;;18.27;10.63;;;;;;;1.12;97.35;101107.16;5019833;28;20052;-76
2022/11/14 04:12:18;;;;;;;20.08;11.55;;;;;;;1.08;98.03;101106.50;5017474;28;20048;-76
2022/11/14 04:15:02;;;;;;;18.60;10.25;;;;;;;1.06;97.88;101105.78;5017822;28;20107;-76
2022/11/14 04:17:47;;;;;;;20.55;11.23;;;;;;;1.02;97.55;101103.47;5018727;28;20044;-76
2022/11/14 04:20:31;;;;;;;19.40;11.13;;;;;;;0.99;97.68;101109.59;5016725;28;20091;-75
2022/11/14 04:23:15;;;;;;;21.13;12.68;;;;;;;0.95;97.91;101103.00;5021735;28;20621;-76
2022/11/14 04:25:59;;;;;;;21.70;13.90;;;;;;;0.94;97.83;101099.63;5018410;28;20115;-75
2022/11/14 04:28:43;;;;;;;23.13;14.43;;;;;;;0.96;97.98;101102.09;5022021;28;20067;-75
2022/11/14 04:31:27;;;;;;;17.83;12.07;;;;;;;0.97;98.55;101096.91;5018225;28;20113;-76
2022/11/14 04:34:11;;;;;;;21.42;12.40;;;;;;;0.99;98.00;101098.56;5024971;28;20056;-76
2022/11/14 04:36:55;;;;;;;19.23;11.07;;;;;;;0.99;98.18;101101.91;5021194;28;20053;-76
2022/11/14 04:39:39;;;;;;;15.63;9.82;;;;;;;1.02;98.13;101103.47;5021193;28;20128;-76
2022/11/14 04:42:24;;;;;;;18.38;9.40;;;;;;;1.04;98.44;101104.22;5022922;28;20180;-76
2022/11/14 04:45:09;;;;;;;18.77;9.05;;;;;;;1.05;98.59;101098.19;5019967;28;20513;-76
2022/11/14 04:47:53;;;;;;;17.05;8.63;;;;;;;1.06;98.69;101103.22;5024831;28;20160;-76
2022/11/14 04:50:37;;;;;;;20.38;8.35;;;;;;;1.08;99.11;101103.97;5021210;28;20188;-76
2022/11/14 04:53:21;;;;;;;12.57;7.05;;;;;;;1.12;99.64;101112.28;5019289;28;20044;-76
2022/11/14 04:56:05;;;;;;;12.38;6.95;;;;;;;1.12;100.00;101107.97;5022296;28;20553;-76
2022/11/14 04:58:49;;;;;;;15.27;7.47;;;;;;;1.13;100.00;101109.63;5019637;28;20166;-76
2022/11/14 05:01:33;;;;;;;15.95;7.35;;;;;;;1.15;100.00;101105.25;5020061;28;20614;-76
2022/11/14 05:04:18;;;;;;;12.25;7.30;;;;;;;1.17;100.00;101102.63;5019432;28;20142;-76
2022/11/14 05:07:02;;;;;;;13.35;6.93;;;;;;;1.19;100.00;101103.34;5019804;28;20083;-76
2022/11/14 05:09:46;;;;;;;14.48;8.32;;;;;;;1.19;100.00;101103.34;5017931;28;20133;-76
2022/11/14 05:12:30;;;;;;;16.48;8.55;;;;;;;1.17;100.00;101090.66;5016366;28;20157;-76
2022/11/14 05:15:14;;;;;;;14.38;7.13;;;;;;;1.19;100.00;101093.13;5020395;28;20044;-76
2022/11/14 05:17:58;;;;;;;16.08;7.45;;;;;;;1.20;100.00;101092.22;5023274;28;20045;-76
2022/11/14 05:20:42;;;;;;;17.02;7.30;;;;;;;1.20;100.00;101092.22;5022662;28;20044;-76
2022/11/14 05:23:27;;;;;;;15.20;7.15;;;;;;;1.38;100.00;101081.84;5021510;28;20049;-76
2022/11/14 05:26:14;;;;;;;13.88;7.90;;;;;;;1.57;100.00;101081.59;5020415;28;20051;-76
2022/11/14 05:28:58;;;;;;;11.63;6.57;;;;;;;1.88;100.00;101088.22;5022571;28;20088;-76
2022/11/14 05:31:42;;;;;;;13.82;7.68;;;;;;;2.03;100.00;101074.50;5017707;28;20172;-74
2022/11/14 05:34:27;;;;;;;13.80;7.55;;;;;;;2.13;100.00;101070.50;5021622;28;20319;-75
2022/11/14 05:37:11;;;;;;;11.52;7.60;;;;;;;2.32;100.00;101065.03;5020434;28;20052;-75
2022/11/14 05:39:55;;;;;;;15.75;8.18;;;;;;;2.36;100.00;101070.81;5022627;28;20133;-76
2022/11/14 05:42:39;;;;;;;18.92;8.55;;;;;;;2.29;100.00;101066.97;5022922;28;20060;-75
2022/11/14 05:45:23;;;;;;;16.20;8.50;;;;;;;2.25;100.00;101058.66;5019508;28;20398;-76
2022/11/14 05:48:07;;;;;;;14.45;7.97;;;;;;;2.17;100.00;101055.78;5021093;28;20048;-76
2022/11/14 05:50:55;;;;;;;15.52;8.23;;;;;;;2.19;100.00;101059.06;5015938;28;20060;-75
2022/11/14 05:53:40;;;;;;;15.60;8.15;;;;;;;2.28;100.00;101055.91;5016748;28;20048;-76
2022/11/14 05:56:24;;;;;;;17.88;7.10;;;;;;;2.31;100.00;101049.78;5016691;28;20080;-75
2022/11/14 05:59:08;;;;;;;14.43;7.10;;;;;;;2.41;100.00;101050.88;5019672;28;20128;-74
2022/11/14 06:01:52;;;;;;;19.25;6.78;;;;;;;2.41;100.00;101050.88;5017185;28;20092;-75
2022/11/14 06:04:36;;;;;;;10.63;6.32;;;;;;;2.33;100.00;101055.63;5019403;28;20055;-76
2022/11/14 06:07:20;;;;;;;14.45;7.28;;;;;;;2.24;100.00;101048.50;5020207;28;20098;-75
2022/11/14 06:10:04;;;;;;;20.73;7.80;;;;;;;2.19;100.00;101055.69;5017062;28;20049;-76
2022/11/14 06:12:49;;;;;;;14.18;7.18;;;;;;;2.20;100.00;101044.50;5019080;28;20044;-75
2022/11/14 06:15:33;;;;;;;12.85;7.82;;;;;;;2.10;100.00;101050.19;5019308;28;20162;-75
2022/11/14 06:18:17;;;;;;;12.88;7.28;;;;;;;2.11;100.00;101045.91;5020330;28;20057;-75
2022/11/14 06:21:04;;;;;;;13.73;7.00;;;;;;;2.00;100.00;101036.34;5017470;28;20426;-76
2022/11/14 06:23:48;;;;;;;13.32;6.75;;;;;;;1.97;100.00;101039.09;5021892;28;20080;-75
2022/11/14 06:26:32;;;;;;;15.25;7.25;;;;;;;2.13;100.00;101038.97;5021392;28;20545;-75
2022/11/14 06:29:17;;;;;;;17.38;7.35;;;;;;;2.14;100.00;101048.28;5018699;28;20566;-75
2022/11/14 06:32:01;;;;;;;13.52;7.50;;;;;;;2.37;100.00;101051.13;5019706;28;20055;-76
2022/11/14 06:34:45;;;;;;;12.02;7.35;;;;;;;2.44;100.00;101042.16;5022039;28;20048;-76
2022/11/14 06:37:29;;;;;;;16.15;7.78;;;;;;;2.45;100.00;101048.91;5018484;28;20053;-75
2022/11/14 06:40:13;;;;;;;14.50;7.32;;;;;;;2.46;100.00;101048.81;5020114;28;20517;-75
2022/11/14 06:42:57;;;;;;;12.43;6.95;;;;;;;2.48;100.00;101049.53;5017934;28;20064;-75
2022/11/14 06:45:41;;;;;;;15.95;7.72;;;;;;;2.40;100.00;101051.75;5016561;28;20056;-75
2022/11/14 06:48:25;;;;;;;15.93;6.97;;;;;;;2.44;100.00;101045.53;5020084;28;20449;-76
2022/11/14 06:51:11;;;;;;;15.73;7.53;;;;;;;2.55;100.00;101054.28;5020026;28;20514;-76
2022/11/14 06:53:55;;;;;;;17.23;8.15;;;;;;;2.61;100.00;101052.13;5018810;28;20053;-75
2022/11/14 06:56:39;;;;;;;17.25;8.43;;;;;;;2.65;100.00;101052.75;5021249;28;20040;-76
2022/11/14 06:59:22;;;;;;;19.00;8.07;;;;;;;2.77;100.00;101058.81;5017337;28;20551;-76
2022/11/14 07:02:11;;;;;;;14.88;7.88;;;;;;;2.91;100.00;101062.13;5016384;28;20047;-75
2022/11/14 07:07:29;;;;;;;15.65;7.75;;;;;;;2.92;100.00;101060.41;4999460;28;20060;-80
2022/11/14 07:10:14;;;;;;;14.65;6.88;;;;;;;3.02;100.00;101066.56;5004997;28;20044;-80
2022/11/14 07:12:58;;;;;;;19.92;8.18;;;;;;;2.98;100.00;101069.44;4991588;28;20075;-79
2022/11/14 07:15:52;;;;;;;15.68;7.38;;;;;;;2.85;100.00;101067.66;4973373;28;20072;-80
2022/11/14 07:18:36;;;;;;;19.02;8.60;;;;;;;3.04;100.00;101077.53;4974623;28;20053;-80
2022/11/14 07:21:20;;;;;;;17.65;8.57;;;;;;;3.08;100.00;101073.03;4986109;28;20077;-80
2022/11/14 07:24:05;;;;;;;23.05;8.70;;;;;;;3.07;100.00;101072.22;4974684;28;20558;-80
2022/11/14 07:26:49;;;;;;;16.17;8.68;;;;;;;3.19;100.00;101067.22;4979278;28;20100;-81
2022/11/14 07:29:33;;;;;;;20.50;8.65;;;;;;;3.19;100.00;101062.09;4989978;28;20134;-81
2022/11/14 07:32:17;;;;;;;16.85;8.23;;;;;;;3.24;100.00;101060.88;4979082;28;20045;-82
2022/11/14 07:35:01;;;;;;;15.38;8.57;;;;;;;3.37;99.99;101053.19;4971819;28;20097;-80
2022/11/14 07:37:45;;;;;;;19.75;10.38;;;;;;;3.41;100.00;101059.72;4987743;28;20511;-80
2022/11/14 07:40:29;;;;;;;21.92;10.02;;;;;;;3.52;100.00;101059.00;4985212;28;20058;-81
2022/11/14 07:43:13;;;;;;;21.98;11.13;;;;;;;3.50;100.00;101055.72;4978729;28;20419;-81
2022/11/14 07:46:10;;;;;;;23.02;11.40;;;;;;;3.61;100.00;101055.00;4974719;28;20049;-79
2022/11/14 07:48:54;;;;;;;24.90;11.95;;;;;;;3.51;100.00;101054.81;4973752;28;20520;-80
2022/11/14 07:51:38;;;;;;;27.08;13.98;;;;;;;3.70;100.00;101062.06;4974753;28;20720;-82
2022/11/14 07:54:22;;;;;;;29.55;14.27;;;;;;;3.80;100.00;101057.94;4976302;28;20096;-80
2022/11/14 07:57:06;;;;;;;24.88;13.43;;;;;;;3.79;100.00;101064.00;4973090;28;20057;-81
2022/11/14 07:59:50;;;;;;;33.42;15.70;;;;;;;3.74;100.00;101067.81;4977143;28;20045;-80
2022/11/14 08:02:34;;;;;;;30.90;14.82;;;;;;;3.78;100.00;101067.47;4973554;28;20105;-80
2022/11/14 08:05:18;;;;;;;31.60;15.82;;;;;;;3.93;100.00;101060.47;4976980;28;20077;-82
2022/11/14 08:08:03;;;;;;;35.30;17.00;;;;;;;3.98;100.00;101062.75;4979850;28;20061;-81
2022/11/14 08:10:46;;;;;;;33.08;16.63;;;;;;;4.02;100.00;101061.59;4979902;28;20049;-81
2022/11/14 08:13:31;;;;;;;34.92;15.40;;;;;;;3.98;100.00;101065.31;4978729;28;20491;-81
2022/11/14 08:16:16;;;;;;;33.75;16.23;;;;;;;4.02;100.00;101064.97;4977195;28;20081;-80
2022/11/14 08:19:00;;;;;;;32.88;16.58;;;;;;;4.14;100.00;101059.91;4979116;28;20100;-81
2022/11/14 08:21:44;;;;;;;38.58;17.13;;;;;;;4.24;100.00;101058.34;4975073;28;20570;-80
2022/11/14 08:24:28;;;;;;;35.00;16.77;;;;;;;4.30;100.00;101057.91;4991630;28;20097;-81
2022/11/14 08:27:12;;;;;;;36.95;17.90;;;;;;;4.31;100.00;101054.38;4989786;28;20053;-82
2022/11/14 08:29:56;;;;;;;37.08;17.10;;;;;;;4.29;100.00;101054.53;4982228;28;20089;-81
2022/11/14 08:32:40;;;;;;;33.97;16.98;;;;;;;4.46;100.00;101039.63;4984211;28;20105;-81
2022/11/14 08:35:25;;;;;;;41.15;17.83;;;;;;;4.57;100.00;101039.69;4968114;28;20065;-82
2022/11/14 08:38:11;;;;;;;41.08;17.77;;;;;;;4.57;100.00;101031.97;4982860;28;20475;-80
2022/11/14 08:40:59;;;;;;;42.85;18.33;;;;;;;4.66;100.00;101035.63;4981270;28;20057;-81
2022/11/14 08:43:43;;;;;;;39.47;19.15;;;;;;;4.67;100.00;101024.41;5005022;28;20100;-80
2022/11/14 08:46:28;;;;;;;41.78;17.55;;;;;;;4.77;100.00;101024.59;4977148;28;20069;-81
2022/11/14 08:49:12;;;;;;;37.60;18.38;;;;;;;4.82;100.00;101020.75;4988159;28;20057;-81
2022/11/14 08:51:56;;;;;;;43.13;18.83;;;;;;;4.90;100.00;101027.88;4978133;28;20045;-82
2022/11/14 08:54:40;;;;;;;43.03;19.20;;;;;;;4.96;100.00;101024.06;4977288;28;20089;-82
2022/11/14 08:57:24;;;;;;;44.10;18.85;;;;;;;5.05;100.00;101015.66;4979506;28;20116;-80
2022/11/14 09:00:08;;;;;;;39.90;18.45;;;;;;;5.04;100.00;101022.53;4986270;28;20111;-79
2022/11/14 09:02:52;;;;;;;40.75;19.38;;;;;;;5.15;100.00;101008.88;4989693;28;20058;-79
2022/11/14 09:05:37;;;;;;;40.90;19.48;;;;;;;5.08;100.00;101007.69;4981451;28;20050;-80
2022/11/14 09:08:22;;;;;;;46.72;21.23;;;;;;;5.19;100.00;101015.41;4975912;28;20523;-78
2022/11/14 09:11:06;;;;;;;45.22;20.65;;;;;;;5.25;100.00;101014.13;5000613;28;20046;-81
2022/11/14 09:13:50;;;;;;;47.80;19.80;;;;;;;5.28;100.00;101005.38;4978422;28;20077;-81
2022/11/14 09:16:34;;;;;;;47.33;20.45;;;;;;;5.26;100.00;101003.75;4970532;28;20054;-81
2022/11/14 09:19:18;;;;;;;45.33;19.27;;;;;;;5.19;100.00;101005.13;4972625;28;20049;-80
2022/11/14 09:22:02;;;;;;;42.03;19.00;;;;;;;5.21;100.00;101005.03;4972539;28;20559;-81
2022/11/14 09:24:46;;;;;;;50.08;21.00;;;;;;;5.20;100.00;101000.84;4984154;28;20097;-81
2022/11/14 09:27:30;;;;;;;44.95;19.52;;;;;;;5.24;100.00;101000.47;4968564;28;20045;-81
2022/11/14 09:30:14;;;;;;;46.50;20.75;;;;;;;5.33;100.00;101003.28;4992698;28;20046;-78
2022/11/14 09:33:00;;;;;;;44.67;20.20;;;;;;;5.36;100.00;101005.63;4979574;28;20041;-81
2022/11/14 09:35:44;;;;;;;45.53;19.75;;;;;;;5.33;100.00;101001.53;4984120;28;20073;-80
2022/11/14 09:38:29;;;;;;;46.05;19.13;;;;;;;5.29;100.00;100999.31;4989867;28;20057;-80
2022/11/14 09:41:37;;;;;;;45.97;18.73;;;;;;;5.39;100.00;100993.34;4975230;28;20069;-81
2022/11/14 09:44:48;;;;;;;40.95;18.35;;;;;;;5.41;100.00;101003.53;4974388;28;20072;-81
2022/11/14 09:47:41;;;;;;;41.60;17.92;;;;;;;5.42;100.00;101007.72;4988109;28;20161;-81
2022/11/14 09:50:33;;;;;;;47.47;19.25;;;;;;;5.41;100.00;101009.47;5002984;28;20510;-80
2022/11/14 09:53:28;;;;;;;46.30;18.55;;;;;;;5.45;100.00;101005.72;4991320;28;20145;-82
2022/11/14 09:56:18;;;;;;;45.20;19.20;;;;;;;5.52;100.00;100997.53;4988198;28;20085;-81
2022/11/14 09:59:02;;;;;;;44.88;19.23;;;;;;;5.57;100.00;100993.66;4974927;28;20050;-82
2022/11/14 10:02:14;;;;;;;40.97;18.08;;;;;;;5.55;100.00;100994.72;4975569;28;20053;-82
2022/11/14 10:05:32;;;;;;;53.00;20.58;;;;;;;5.67;98.96;100988.66;4987319;28;20188;-79
2022/11/14 10:08:35;;;;;;;44.30;18.70;;;;;;;5.63;99.02;100988.06;4986988;28;20499;-81
2022/11/14 10:11:33;;;;;;;48.43;19.40;;;;;;;5.69;99.27;100991.91;4977076;28;20515;-82
2022/11/14 10:14:32;;;;;;;50.63;20.00;;;;;;;5.66;99.05;100987.00;4975189;28;20476;-80
2022/11/14 10:17:48;;;;;;;47.40;20.85;;;;;;;5.69;98.90;100984.19;4972446;28;20038;-82
2022/11/14 10:20:41;;;;;;;45.90;20.60;;;;;;;5.75;98.80;100981.16;4971898;28;20057;-82
2022/11/14 10:23:57;;;;;;;44.33;20.00;;;;;;;5.79;98.62;100976.56;4972379;28;20133;-82
2022/11/14 10:26:51;;;;;;;46.55;17.42;;;;;;;5.82;98.38;100972.00;4991466;28;20042;-82
2022/11/14 10:30:01;;;;;;;42.25;17.73;;;;;;;5.84;98.43;100962.41;4971592;28;20073;-81
2022/11/14 10:33:05;;;;;;;46.00;18.38;;;;;;;5.86;98.29;100970.00;4972426;28;20054;-80
2022/11/14 10:36:04;;;;;;;41.92;18.55;;;;;;;5.93;97.75;100958.28;4972571;28;20096;-81
2022/11/14 10:38:55;;;;;;;46.40;18.70;;;;;;;6.03;96.87;100955.84;4973884;28;20081;-83
2022/11/14 10:41:40;;;;;;;44.67;16.80;;;;;;;6.02;97.30;100949.03;5002361;28;20096;-81
2022/11/14 10:44:46;;;;;;;42.83;16.48;;;;;;;6.03;97.60;100951.50;4979427;28;20115;-82
2022/11/14 10:47:38;;;;;;;36.92;16.42;;;;;;;6.04;97.61;100942.81;4976418;28;20384;-80
2022/11/14 10:50:41;;;;;;;38.60;16.38;;;;;;;6.16;96.92;100955.66;4979106;28;20049;-78
2022/11/14 10:54:01;;;;;;;30.60;14.13;;;;;;;6.13;96.99;100941.28;4985053;28;20041;-80
2022/11/14 10:56:47;;;;;;;40.92;15.82;;;;;;;6.14;96.69;100936.94;4986151;28;20084;-81
2022/11/14 10:59:31;;;;;;;34.13;15.32;;;;;;;6.21;97.71;100940.66;4977512;28;20100;-82
2022/11/14 11:02:16;;;;;;;36.80;16.30;;;;;;;6.32;96.80;100932.88;4982665;28;20045;-79
2022/11/14 11:05:14;;;;;;;32.10;14.60;;;;;;;6.31;97.02;100941.56;4976819;28;20049;-80
2022/11/14 11:11:36;;;;;;;30.13;13.02;;;;;;;6.41;96.32;100947.59;4989447;28;20045;-82
2022/11/14 11:14:18;;;;;;;26.38;12.73;;;;;;;6.53;96.00;100950.91;4990609;28;20073;-81
2022/11/14 11:17:11;;;;;;;29.75;13.45;;;;;;;6.53;95.96;100930.28;4986430;28;20127;-80
2022/11/14 11:20:35;;;;;;;27.52;12.57;;;;;;;6.60;95.55;100941.72;5003944;28;20101;-81
2022/11/14 11:23:25;;;;;;;24.60;13.00;;;;;;;6.71;95.31;100932.31;4970216;28;20515;-82
2022/11/14 11:26:35;;;;;;;23.92;11.32;;;;;;;6.82;95.06;100940.78;4987841;28;20199;-82
2022/11/14 11:29:19;;;;;;;27.27;12.07;;;;;;;6.83;95.03;100931.28;4972368;28;20065;-81
2022/11/14 11:32:03;;;;;;;26.25;11.73;;;;;;;6.82;95.24;100925.31;4970863;28;20057;-81
2022/11/14 11:34:48;;;;;;;27.73;11.65;;;;;;;6.88;95.27;100918.03;4998611;28;20061;-79
2022/11/14 11:37:38;;;;;;;25.52;11.40;;;;;;;6.78;95.38;100917.94;4969727;28;20049;-81
2022/11/14 11:40:25;;;;;;;23.30;11.57;;;;;;;6.90;95.72;100916.94;4988653;28;20045;-81
2022/11/14 11:43:29;;;;;;;23.83;10.60;;;;;;;6.91;95.33;100905.69;4985921;28;20041;-80
2022/11/14 11:46:25;;;;;;;23.83;11.10;;;;;;;6.97;94.87;100904.34;4976312;28;20054;-80
2022/11/14 11:49:39;;;;;;;23.45;9.75;;;;;;;7.14;94.62;100890.00;4989725;28;20104;-80
2022/11/14 11:52:40;;;;;;;22.20;10.85;;;;;;;7.14;94.40;100885.69;4984832;28;20412;-82
2022/11/14 11:55:28;;;;;;;23.20;10.48;;;;;;;7.17;94.04;100887.16;4974836;28;20123;-81
2022/11/14 11:58:27;;;;;;;29.85;13.90;;;;;;;7.20;95.02;100887.72;4988587;28;20099;-80
2022/11/14 12:01:12;;;;;;;25.95;11.48;;;;;;;7.28;94.65;100879.31;4975591;28;20037;-80
2022/11/14 12:03:57;;;;;;;19.80;10.52;;;;;;;7.41;93.79;100879.09;4986794;28;20085;-81
2022/11/14 12:06:57;;;;;;;22.35;10.70;;;;;;;7.49;93.39;100886.97;4976749;28;20069;-81
2022/11/14 12:09:41;;;;;;;23.27;11.30;;;;;;;7.43;93.12;100873.81;4989117;28;20098;-82
2022/11/14 12:12:43;;;;;;;20.80;10.55;;;;;;;7.40;93.99;100870.53;4987761;28;20551;-81
2022/11/14 12:15:42;;;;;;;25.15;12.73;;;;;;;7.38;94.15;100869.03;4990158;28;20045;-81
2022/11/14 12:18:42;;;;;;;24.20;11.95;;;;;;;7.41;93.63;100861.84;4989186;28;20053;-81
2022/11/14 12:21:41;;;;;;;28.02;13.07;;;;;;;7.51;93.53;100867.00;4985885;28;20072;-82
2022/11/14 12:24:47;;;;;;;26.45;11.88;;;;;;;7.48;92.89;100863.88;4982128;28;20526;-80
2022/11/14 12:28:07;;;;;;;23.67;12.15;;;;;;;7.42;92.83;100844.59;4985675;28;20061;-81
2022/11/14 12:30:58;;;;;;;23.88;11.75;;;;;;;7.49;92.65;100835.34;4986149;28;20152;-81
2022/11/14 12:33:54;;;;;;;27.85;12.30;;;;;;;7.57;92.45;100825.19;4975265;28;20106;-82
2022/11/14 12:36:41;;;;;;;24.20;11.88;;;;;;;7.61;92.21;100812.84;5000886;28;20409;-81
2022/11/14 12:40:00;;;;;;;23.77;12.27;;;;;;;7.64;92.31;100811.75;4977746;28;20525;-80
2022/11/14 12:42:47;;;;;;;27.95;13.10;;;;;;;7.62;92.14;100811.88;4991278;28;20049;-81
2022/11/14 12:45:40;;;;;;;29.13;13.48;;;;;;;7.70;91.73;100821.50;4996559;28;20053;-80
2022/11/14 12:48:24;;;;;;;24.08;12.55;;;;;;;7.89;90.99;100834.44;4992041;28;20061;-81
2022/11/14 12:51:23;;;;;;;32.50;14.68;;;;;;;7.86;90.89;100829.53;4980080;28;20056;-79
2022/11/14 12:54:53;;;;;;;36.88;13.50;;;;;;;7.93;90.76;100822.03;4989156;28;20061;-80
2022/11/14 12:57:59;;;;;;;29.38;14.40;;;;;;;7.87;91.38;100813.06;4978757;28;20053;-81